Time;durP1;ratioP1;P1;durP2;ratioP2;P2;SDS_P1;SDS_P2;PMS_P1;PMS_P2;Temp;Humidity;BMP_temperature;BMP_pressure;BME280_temperature;BME280_humidity;BME280_pressure;Samples;Min_cycle;Max_cycle;Signal;HPM_P1;HPM_P2
2022/02/20 00:01:19;;;;;;;23.98;5.10;;;7.10;99.90;;;;;;5014073;28;20076;-67
2022/02/20 00:03:46;;;;;;;23.65;5.15;;;7.20;99.90;;;;;;5034601;28;20053;-67
2022/02/20 00:06:16;;;;;;;18.80;4.83;;;7.20;99.90;;;;;;5009876;28;20046;-72
2022/02/20 00:08:43;;;;;;;20.20;4.43;;;7.10;99.90;;;;;;4996087;28;20057;-69
2022/02/20 00:11:10;;;;;;;22.05;4.80;;;7.10;99.90;;;;;;5012409;28;20065;-67
2022/02/20 00:13:37;;;;;;;19.25;4.25;;;7.10;99.90;;;;;;5012676;28;20038;-67
2022/02/20 00:16:05;;;;;;;20.75;5.25;;;7.00;99.90;;;;;;5013560;28;20046;-67
2022/02/20 00:18:32;;;;;;;18.40;5.32;;;7.00;99.90;;;;;;5036722;28;20486;-67
2022/02/20 00:20:59;;;;;;;24.85;5.97;;;7.00;99.90;;;;;;5012241;28;20049;-67
2022/02/20 00:23:26;;;;;;;23.65;6.32;;;7.00;99.90;;;;;;5037015;28;20042;-67
2022/02/20 00:25:53;;;;;;;17.60;5.43;;;7.10;99.90;;;;;;4995930;28;20125;-67
2022/02/20 00:28:20;;;;;;;15.18;5.05;;;7.10;99.90;;;;;;4996175;28;20099;-67
2022/02/20 00:30:47;;;;;;;29.38;4.75;;;7.20;99.90;;;;;;5033454;28;20513;-67
2022/02/20 00:33:14;;;;;;;21.27;6.50;;;7.30;99.90;;;;;;5034013;28;20060;-67
2022/02/20 00:35:41;;;;;;;20.10;6.80;;;7.30;99.90;;;;;;5013566;28;20057;-67
2022/02/20 00:38:08;;;;;;;19.30;5.80;;;7.40;99.90;;;;;;4995624;28;20042;-67
2022/02/20 00:40:35;;;;;;;22.23;6.72;;;7.40;99.90;;;;;;5001431;28;20394;-69
2022/02/20 00:43:02;;;;;;;23.33;5.82;;;7.50;99.90;;;;;;5022805;28;20045;-67
2022/02/20 00:45:29;;;;;;;20.73;6.28;;;7.50;99.90;;;;;;5019731;28;20413;-67
2022/02/20 00:47:57;;;;;;;21.33;5.93;;;7.60;99.90;;;;;;5036272;28;20140;-68
2022/02/20 00:50:24;;;;;;;22.02;5.30;;;7.60;99.90;;;;;;4995886;28;20046;-67
2022/02/20 00:52:51;;;;;;;26.98;6.40;;;7.60;99.90;;;;;;4979267;28;20409;-67
2022/02/20 00:55:18;;;;;;;26.83;8.60;;;7.70;99.90;;;;;;5012594;28;20504;-67
2022/02/20 00:57:48;;;;;;;17.77;6.43;;;7.70;99.90;;;;;;5035699;28;20046;-67
2022/02/20 01:00:15;;;;;;;30.15;6.85;;;7.70;99.90;;;;;;5009999;28;20050;-70
2022/02/20 01:02:42;;;;;;;27.35;4.72;;;7.80;99.90;;;;;;5011358;28;20061;-67
2022/02/20 01:05:12;;;;;;;21.05;5.40;;;7.80;99.90;;;;;;5019776;28;20057;-67
2022/02/20 01:07:40;;;;;;;22.45;6.95;;;7.80;99.90;;;;;;4995452;28;20050;-67
2022/02/20 01:10:08;;;;;;;32.83;7.95;;;7.90;99.90;;;;;;5011453;28;20052;-67
2022/02/20 01:12:36;;;;;;;25.83;5.97;;;7.90;99.90;;;;;;5018667;28;20052;-70
2022/02/20 01:15:05;;;;;;;23.77;6.15;;;7.90;99.90;;;;;;5018308;28;20536;-67
2022/02/20 01:17:32;;;;;;;15.63;4.90;;;7.90;99.90;;;;;;5040151;28;20041;-67
2022/02/20 01:20:00;;;;;;;22.75;4.93;;;7.90;99.90;;;;;;4992195;28;20299;-67
2022/02/20 01:22:28;;;;;;;26.67;5.63;;;7.90;99.90;;;;;;5038563;28;20046;-67
2022/02/20 01:24:55;;;;;;;30.85;7.20;;;8.00;99.90;;;;;;5008836;28;20486;-67
2022/02/20 01:27:23;;;;;;;16.95;5.88;;;8.00;99.90;;;;;;5015363;28;20568;-67
2022/02/20 01:29:50;;;;;;;21.88;5.97;;;8.00;99.90;;;;;;4978723;28;20054;-67
2022/02/20 01:32:17;;;;;;;22.40;6.65;;;8.00;99.90;;;;;;5011065;28;20084;-67
2022/02/20 01:34:44;;;;;;;22.30;6.30;;;8.00;99.90;;;;;;4995373;28;20493;-67
2022/02/20 01:37:11;;;;;;;19.83;5.32;;;8.00;99.90;;;;;;5011605;28;20053;-66
2022/02/20 01:39:38;;;;;;;16.17;5.15;;;8.10;99.90;;;;;;5003175;28;20507;-67
2022/02/20 01:42:05;;;;;;;23.83;5.05;;;8.10;99.90;;;;;;5015479;28;20054;-66
2022/02/20 01:44:33;;;;;;;24.27;5.88;;;8.20;99.90;;;;;;5019315;28;20409;-66
2022/02/20 01:47:08;;;;;;;15.75;5.22;;;8.20;99.90;;;;;;4995821;28;20050;-66
2022/02/20 01:49:35;;;;;;;24.63;5.38;;;8.20;99.90;;;;;;5011338;28;20049;-68
2022/02/20 01:52:02;;;;;;;17.00;4.88;;;8.30;99.90;;;;;;5009498;28;20060;-67
2022/02/20 01:54:32;;;;;;;22.48;6.18;;;8.30;99.90;;;;;;5032044;28;20046;-67
2022/02/20 01:56:59;;;;;;;23.00;5.80;;;8.40;99.90;;;;;;5031001;28;20052;-67
2022/02/20 01:59:26;;;;;;;22.30;6.30;;;8.40;99.90;;;;;;5014579;28;20072;-66
2022/02/20 02:01:53;;;;;;;20.40;5.60;;;8.50;99.90;;;;;;5030877;28;20481;-66
2022/02/20 02:04:20;;;;;;;15.68;5.40;;;8.50;99.90;;;;;;5026353;28;20397;-66
2022/02/20 02:06:47;;;;;;;28.90;6.72;;;8.60;99.90;;;;;;4995509;28;20052;-66
2022/02/20 02:09:15;;;;;;;26.20;5.53;;;8.60;99.90;;;;;;4995186;28;20057;-71
2022/02/20 02:11:42;;;;;;;19.85;5.40;;;8.70;99.90;;;;;;4995460;28;20061;-66
2022/02/20 02:14:09;;;;;;;16.58;5.63;;;8.70;99.90;;;;;;4994999;28;20054;-66
2022/02/20 02:16:36;;;;;;;22.50;6.65;;;8.80;99.90;;;;;;4994220;28;20054;-67
2022/02/20 02:19:03;;;;;;;20.35;6.57;;;8.80;99.90;;;;;;4994596;28;20053;-68
2022/02/20 02:21:30;;;;;;;20.85;5.18;;;8.90;99.90;;;;;;4994581;28;20053;-67
2022/02/20 02:23:59;;;;;;;16.35;4.15;;;8.90;99.90;;;;;;4994970;28;20136;-66
2022/02/20 02:26:29;;;;;;;18.77;5.10;;;9.00;99.90;;;;;;5011183;28;20054;-67
2022/02/20 02:28:56;;;;;;;17.35;4.90;;;9.00;99.90;;;;;;5010853;28;20061;-67
2022/02/20 02:31:23;;;;;;;13.55;4.85;;;9.10;99.90;;;;;;5011652;28;20409;-67
2022/02/20 02:33:50;;;;;;;19.42;4.57;;;9.20;99.90;;;;;;4994779;28;20053;-67
2022/02/20 02:36:18;;;;;;;21.42;5.97;;;9.20;99.90;;;;;;5010884;28;20045;-67
2022/02/20 02:38:45;;;;;;;21.60;4.68;;;9.30;99.90;;;;;;4994621;28;20052;-67
2022/02/20 02:41:11;;;;;;;15.85;4.25;;;9.40;99.90;;;;;;4994957;28;20053;-69
2022/02/20 02:43:39;;;;;;;17.77;5.50;;;9.40;99.90;;;;;;5010919;28;20046;-67
2022/02/20 02:46:06;;;;;;;16.08;6.22;;;9.40;99.90;;;;;;5010729;28;20133;-67
2022/02/20 02:48:43;;;;;;;;;;;9.50;99.90;;;;;;5011531;28;20057;-67
2022/02/20 02:51:10;;;;;;;20.58;4.50;;;9.50;99.90;;;;;;5027437;28;19922;-67
2022/02/20 02:53:36;;;;;;;13.05;3.67;;;9.60;99.90;;;;;;4994361;28;20046;-66
2022/02/20 02:56:04;;;;;;;17.83;4.45;;;9.60;99.90;;;;;;4994658;28;20081;-66
2022/02/20 02:58:31;;;;;;;14.98;4.22;;;9.60;99.90;;;;;;5010960;28;20054;-66
2022/02/20 03:00:58;;;;;;;15.70;4.53;;;9.70;99.90;;;;;;5011613;28;20049;-67
2022/02/20 03:03:25;;;;;;;16.95;4.03;;;9.70;99.90;;;;;;4994275;28;20141;-66
2022/02/20 03:05:56;;;;;;;14.73;4.60;;;9.80;99.90;;;;;;5013119;28;20060;-67
2022/02/20 03:08:24;;;;;;;11.90;4.57;;;9.80;99.90;;;;;;4998670;28;20049;-67
2022/02/20 03:10:51;;;;;;;14.57;4.07;;;9.80;99.90;;;;;;5014184;28;20812;-67
2022/02/20 03:13:18;;;;;;;21.20;5.63;;;9.90;99.90;;;;;;5013912;28;20486;-67
2022/02/20 03:15:45;;;;;;;20.60;6.75;;;9.90;99.90;;;;;;4981050;28;20053;-72
2022/02/20 03:18:15;;;;;;;16.90;4.82;;;9.90;99.90;;;;;;5015227;28;20072;-66
2022/02/20 03:20:42;;;;;;;14.02;4.10;;;9.90;99.90;;;;;;4998073;28;20053;-67
2022/02/20 03:23:08;;;;;;;14.52;3.85;;;10.00;99.90;;;;;;5013816;28;20436;-67
2022/02/20 03:25:35;;;;;;;12.88;3.70;;;10.00;99.90;;;;;;5013779;28;20046;-67
2022/02/20 03:28:05;;;;;;;17.00;4.43;;;10.10;99.90;;;;;;5013694;28;20054;-73
2022/02/20 03:30:32;;;;;;;17.15;4.32;;;10.10;99.90;;;;;;5014770;28;20050;-66
2022/02/20 03:32:59;;;;;;;19.52;5.05;;;10.20;99.90;;;;;;5006012;28;20056;-67
2022/02/20 03:35:26;;;;;;;15.23;4.75;;;10.20;99.90;;;;;;5015508;28;20038;-67
2022/02/20 03:37:53;;;;;;;11.90;3.45;;;10.20;99.90;;;;;;4992689;28;20050;-67
2022/02/20 03:40:20;;;;;;;13.07;3.58;;;10.30;99.90;;;;;;5024412;28;20046;-67
2022/02/20 03:42:47;;;;;;;13.13;3.55;;;10.30;99.90;;;;;;5014841;28;20046;-67
2022/02/20 03:45:14;;;;;;;12.60;4.38;;;10.30;99.90;;;;;;5033132;28;20053;-67
2022/02/20 03:47:41;;;;;;;12.80;4.47;;;10.30;99.90;;;;;;5033485;28;20058;-67
2022/02/20 03:50:08;;;;;;;18.67;4.13;;;10.40;99.90;;;;;;5016780;28;20057;-67
2022/02/20 03:52:35;;;;;;;18.23;5.47;;;10.40;99.90;;;;;;5014034;28;20046;-67
2022/02/20 03:55:03;;;;;;;19.90;5.25;;;10.50;99.90;;;;;;4996954;28;20052;-67
2022/02/20 03:57:33;;;;;;;10.52;3.83;;;10.50;99.90;;;;;;4993051;28;20051;-68
2022/02/20 04:00:00;;;;;;;;;;;10.50;99.90;;;;;;4977992;28;20177;-66
2022/02/20 04:02:29;;;;;;;16.40;4.47;;;10.50;99.90;;;;;;5008841;28;20375;-67
2022/02/20 04:04:57;;;;;;;15.90;4.50;;;10.60;99.90;;;;;;5028741;28;20042;-67
2022/02/20 04:07:25;;;;;;;12.68;4.60;;;10.60;99.90;;;;;;5002641;28;20103;-80
2022/02/20 04:09:52;;;;;;;12.98;4.30;;;10.60;99.90;;;;;;5044650;28;20062;-67
2022/02/20 04:12:19;;;;;;;16.58;4.45;;;10.60;99.90;;;;;;5024726;28;20046;-67
2022/02/20 04:14:45;;;;;;;14.15;5.22;;;10.60;99.90;;;;;;5044775;28;20060;-68
2022/02/20 04:17:12;;;;;;;12.02;4.50;;;10.60;99.90;;;;;;5012642;28;20054;-67
2022/02/20 04:19:39;;;;;;;15.05;4.28;;;10.60;99.90;;;;;;5012641;28;20057;-67
2022/02/20 04:22:07;;;;;;;17.67;5.35;;;10.70;99.90;;;;;;5012391;28;20057;-67
2022/02/20 04:24:34;;;;;;;15.23;4.90;;;10.60;99.90;;;;;;5013140;28;20049;-68
2022/02/20 04:27:03;;;;;;;32.28;13.50;;;10.60;99.90;;;;;;5012305;28;20045;-66
2022/02/20 04:29:30;;;;;;;27.50;14.30;;;10.70;99.90;;;;;;5013316;28;20041;-69
2022/02/20 04:31:57;;;;;;;18.63;11.80;;;10.70;99.90;;;;;;5013930;28;20052;-57
2022/02/20 04:34:25;;;;;;;19.58;5.50;;;10.70;99.90;;;;;;5031424;28;20115;-72
2022/02/20 04:36:52;;;;;;;21.33;6.15;;;10.70;99.90;;;;;;5025941;28;20057;-69
2022/02/20 04:39:19;;;;;;;18.23;5.57;;;10.70;99.90;;;;;;5000655;28;20049;-69
2022/02/20 04:41:46;;;;;;;24.27;7.00;;;10.70;99.90;;;;;;5012702;28;20058;-69
2022/02/20 04:44:14;;;;;;;22.50;5.25;;;10.70;99.90;;;;;;5022054;28;20053;-67
2022/02/20 04:46:41;;;;;;;17.10;5.07;;;10.60;99.90;;;;;;5013104;28;20127;-68
2022/02/20 04:49:08;;;;;;;17.23;5.75;;;10.70;99.90;;;;;;5023236;28;20107;-66
2022/02/20 04:51:36;;;;;;;36.25;17.67;;;10.70;99.90;;;;;;5016419;28;20052;-59
2022/02/20 04:54:03;;;;;;;30.75;21.13;;;10.70;99.90;;;;;;5014793;28;20055;-66
2022/02/20 04:56:30;;;;;;;34.45;13.18;;;10.70;99.90;;;;;;5031006;28;20053;-63
2022/02/20 04:58:57;;;;;;;21.05;8.95;;;10.60;99.90;;;;;;5028255;28;20048;-67
2022/02/20 05:01:24;;;;;;;22.95;5.88;;;10.60;99.90;;;;;;5016986;28;20041;-66
2022/02/20 05:03:52;;;;;;;20.08;6.03;;;10.50;99.90;;;;;;5012941;28;20045;-65
2022/02/20 05:06:19;;;;;;;27.35;5.50;;;10.40;99.90;;;;;;5012942;28;20149;-66
2022/02/20 05:08:46;;;;;;;22.17;5.82;;;10.40;99.90;;;;;;5005952;28;20060;-66
2022/02/20 05:11:13;;;;;;;28.13;6.57;;;10.40;99.90;;;;;;5013909;28;20076;-71
2022/02/20 05:13:41;;;;;;;21.67;6.57;;;10.40;99.90;;;;;;5019465;28;20054;-73
2022/02/20 05:16:08;;;;;;;20.92;5.65;;;10.40;99.90;;;;;;4992688;28;20057;-68
2022/02/20 05:18:35;;;;;;;19.73;5.32;;;10.40;99.90;;;;;;5005617;28;20052;-67
2022/02/20 05:21:02;;;;;;;26.40;6.50;;;10.50;99.90;;;;;;5012027;28;20049;-69
2022/02/20 05:23:29;;;;;;;20.27;5.53;;;10.50;99.90;;;;;;5016198;28;20045;-70
2022/02/20 05:25:56;;;;;;;24.13;5.88;;;10.50;99.90;;;;;;5009425;28;20488;-69
2022/02/20 05:28:23;;;;;;;116.82;78.85;;;10.50;99.90;;;;;;5017901;28;20049;-73
2022/02/20 05:30:51;;;;;;;94.63;56.80;;;10.50;99.90;;;;;;5032533;28;20057;-73
2022/02/20 05:33:19;;;;;;;25.58;10.52;;;10.50;99.90;;;;;;5019565;28;20076;-67
2022/02/20 05:35:47;;;;;;;22.13;7.10;;;10.50;99.90;;;;;;5012295;28;20133;-67
2022/02/20 05:38:16;;;;;;;25.40;7.63;;;10.50;99.90;;;;;;5017937;28;20049;-67
2022/02/20 05:40:43;;;;;;;22.00;5.70;;;10.50;99.90;;;;;;5011373;28;20057;-67
2022/02/20 05:43:13;;;;;;;17.45;5.88;;;10.50;99.90;;;;;;5024515;28;20041;-67
2022/02/20 05:45:39;;;;;;;29.17;7.68;;;10.50;99.90;;;;;;4995062;28;20398;-67
2022/02/20 05:48:06;;;;;;;20.65;6.05;;;10.60;99.90;;;;;;5011430;28;20048;-67
2022/02/20 05:50:34;;;;;;;21.08;6.13;;;10.60;99.90;;;;;;5027541;28;20081;-67
2022/02/20 05:53:00;;;;;;;24.65;6.28;;;10.60;99.90;;;;;;4977782;28;20065;-67
2022/02/20 05:55:27;;;;;;;21.52;6.82;;;10.60;99.90;;;;;;4994813;28;20050;-67
2022/02/20 05:57:55;;;;;;;25.30;6.68;;;10.60;99.90;;;;;;5019750;28;20045;-67
2022/02/20 06:00:28;;;;;;;21.73;6.22;;;10.70;99.90;;;;;;5026584;28;20057;-68
2022/02/20 06:02:56;;;;;;;22.20;7.85;;;10.70;99.90;;;;;;5010546;28;20060;-66
2022/02/20 06:05:23;;;;;;;22.05;5.78;;;10.70;99.90;;;;;;5015421;28;20054;-67
2022/02/20 06:07:50;;;;;;;21.50;6.97;;;10.70;99.90;;;;;;5012311;28;20057;-67
2022/02/20 06:10:17;;;;;;;23.05;6.40;;;10.70;99.90;;;;;;5012112;28;20056;-67
2022/02/20 06:12:44;;;;;;;26.60;7.00;;;10.80;99.90;;;;;;5025629;28;20053;-77
2022/02/20 06:15:12;;;;;;;22.98;6.30;;;10.80;99.90;;;;;;5004314;28;20049;-67
2022/02/20 06:17:39;;;;;;;20.70;6.05;;;10.80;99.90;;;;;;5019165;28;20046;-67
2022/02/20 06:20:06;;;;;;;25.40;7.90;;;10.80;99.90;;;;;;5011149;28;20054;-67
2022/02/20 06:22:33;;;;;;;26.25;6.95;;;10.80;99.90;;;;;;5011018;28;20132;-66
2022/02/20 06:25:02;;;;;;;31.35;7.65;;;10.80;99.90;;;;;;5010884;28;20057;-67
2022/02/20 06:27:29;;;;;;;17.55;6.25;;;10.80;99.90;;;;;;5026735;28;20157;-67
2022/02/20 06:30:16;;;;;;;22.10;6.35;;;10.80;99.90;;;;;;5012695;28;20073;-67
2022/02/20 06:32:43;;;;;;;27.58;7.78;;;10.80;99.90;;;;;;5026303;28;20088;-67
2022/02/20 06:35:10;;;;;;;24.02;7.28;;;10.80;99.90;;;;;;5018902;28;20046;-68
2022/02/20 06:37:37;;;;;;;17.65;5.95;;;10.70;99.90;;;;;;5043120;28;20054;-67
2022/02/20 06:40:05;;;;;;;22.00;5.95;;;10.70;99.90;;;;;;5045596;28;20532;-66
2022/02/20 06:42:32;;;;;;;26.35;8.20;;;10.70;99.90;;;;;;5025609;28;20045;-67
2022/02/20 06:44:59;;;;;;;25.73;8.25;;;10.70;99.90;;;;;;5018941;28;20046;-70
2022/02/20 06:47:27;;;;;;;34.20;8.27;;;10.70;99.90;;;;;;5007030;28;20073;-73
2022/02/20 06:49:54;;;;;;;25.27;6.82;;;10.70;99.90;;;;;;5028468;28;20128;-67
2022/02/20 06:52:21;;;;;;;27.10;7.00;;;10.70;99.90;;;;;;5016685;28;20058;-66
2022/02/20 06:54:48;;;;;;;32.63;7.13;;;10.70;99.90;;;;;;5013764;28;20077;-68
2022/02/20 06:57:18;;;;;;;29.60;8.13;;;10.80;99.90;;;;;;5014018;28;20046;-66
2022/02/20 06:59:45;;;;;;;33.22;9.00;;;10.80;99.90;;;;;;5000375;28;20080;-67
2022/02/20 07:02:12;;;;;;;34.97;8.63;;;10.80;99.90;;;;;;5031626;28;20375;-67
2022/02/20 07:04:39;;;;;;;24.70;7.88;;;10.80;99.90;;;;;;4998694;28;20050;-69
2022/02/20 07:07:06;;;;;;;27.30;8.18;;;10.80;99.90;;;;;;5015055;28;20588;-67
2022/02/20 07:09:33;;;;;;;34.35;8.55;;;10.80;99.90;;;;;;5002059;28;20090;-67
2022/02/20 07:12:00;;;;;;;23.17;8.82;;;10.80;99.90;;;;;;5009524;28;20489;-67
2022/02/20 07:14:27;;;;;;;27.27;7.68;;;10.90;99.90;;;;;;5016352;28;20042;-67
2022/02/20 07:16:54;;;;;;;24.08;7.30;;;10.90;99.90;;;;;;5020250;28;20061;-67
2022/02/20 07:19:21;;;;;;;28.98;7.60;;;10.90;99.90;;;;;;5028841;28;20048;-67
2022/02/20 07:21:48;;;;;;;29.83;9.70;;;10.90;99.90;;;;;;5001646;28;20379;-67
2022/02/20 07:24:15;;;;;;;30.08;8.85;;;10.90;99.90;;;;;;5029850;28;20046;-67
2022/02/20 07:26:42;;;;;;;22.58;7.38;;;10.90;99.90;;;;;;5019677;28;20050;-71
2022/02/20 07:29:09;;;;;;;31.63;8.90;;;10.90;99.90;;;;;;5016517;28;20100;-67
2022/02/20 07:31:36;;;;;;;27.30;7.65;;;11.00;99.90;;;;;;4999485;28;20058;-67
2022/02/20 07:34:03;;;;;;;32.75;10.70;;;11.00;99.90;;;;;;5019261;28;20968;-68
2022/02/20 07:36:30;;;;;;;27.98;7.90;;;11.00;99.90;;;;;;5023556;28;20046;-67
2022/02/20 07:38:57;;;;;;;21.45;7.57;;;11.00;99.90;;;;;;5022257;28;20058;-67
2022/02/20 07:41:24;;;;;;;34.75;8.07;;;11.00;99.90;;;;;;5020777;28;20057;-68
2022/02/20 07:43:51;;;;;;;34.70;10.10;;;11.00;99.90;;;;;;5021210;28;20045;-67
2022/02/20 07:46:18;;;;;;;30.98;7.43;;;11.00;99.90;;;;;;5024720;28;20074;-67
2022/02/20 07:48:45;;;;;;;39.65;7.82;;;11.00;99.90;;;;;;5012846;28;20433;-68
2022/02/20 07:51:13;;;;;;;35.13;7.97;;;11.00;99.90;;;;;;5017431;28;20052;-66
2022/02/20 07:53:41;;;;;;;32.03;9.52;;;11.10;99.90;;;;;;5033496;28;20042;-67
2022/02/20 07:56:09;;;;;;;27.92;8.98;;;11.00;99.90;;;;;;5021871;28;20112;-67
2022/02/20 07:58:37;;;;;;;29.67;8.65;;;11.10;99.90;;;;;;4997110;28;20050;-66
2022/02/20 08:01:06;;;;;;;35.95;9.57;;;11.10;99.90;;;;;;5024095;28;20489;-67
2022/02/20 08:03:33;;;;;;;38.10;9.00;;;11.10;99.90;;;;;;5045178;28;20429;-66
2022/02/20 08:06:03;;;;;;;40.28;10.48;;;11.10;99.90;;;;;;5000147;28;20042;-67
2022/02/20 08:08:31;;;;;;;33.97;9.52;;;11.10;99.90;;;;;;5018613;28;20052;-67
2022/02/20 08:10:59;;;;;;;33.00;7.43;;;11.10;99.90;;;;;;5002272;28;20061;-67
2022/02/20 08:13:26;;;;;;;33.65;9.73;;;11.10;99.90;;;;;;5013499;28;20046;-66
2022/02/20 08:15:53;;;;;;;41.03;9.32;;;11.10;99.90;;;;;;4997180;28;20050;-67
2022/02/20 08:18:20;;;;;;;27.35;7.82;;;11.10;99.90;;;;;;5028039;28;20080;-68
2022/02/20 08:20:49;;;;;;;;;;;11.10;99.90;;;;;;5021851;28;20060;-67
2022/02/20 08:23:36;;;;;;;33.90;9.80;;;11.10;99.90;;;;;;5022301;28;19967;-69
2022/02/20 08:26:03;;;;;;;36.88;9.57;;;11.20;99.90;;;;;;5030567;28;20057;-69
2022/02/20 08:28:30;;;;;;;42.00;11.52;;;11.20;99.90;;;;;;5009467;28;20379;-66
2022/02/20 08:30:57;;;;;;;24.23;7.75;;;11.20;99.90;;;;;;5023872;28;20041;-66
2022/02/20 08:33:24;;;;;;;36.95;13.93;;;11.20;99.90;;;;;;5007660;28;20047;-67
2022/02/20 08:36:13;;;;;;;29.52;9.45;;;11.30;99.90;;;;;;5032721;28;20048;-66
2022/02/20 08:38:41;;;;;;;30.98;9.95;;;11.30;99.90;;;;;;5023288;28;20454;-67
2022/02/20 08:41:09;;;;;;;34.25;10.15;;;11.30;99.90;;;;;;5043779;28;20049;-67
2022/02/20 08:43:36;;;;;;;30.25;10.10;;;11.30;99.90;;;;;;5021962;28;20050;-67
2022/02/20 08:46:03;;;;;;;32.80;7.60;;;11.40;99.90;;;;;;5046086;28;20508;-69
2022/02/20 08:48:35;;;;;;;32.38;9.23;;;11.40;99.90;;;;;;5016885;28;20556;-67
2022/02/20 08:51:06;;;;;;;34.15;10.30;;;11.40;99.90;;;;;;5018605;28;20057;-74
2022/02/20 08:53:37;;;;;;;30.77;9.07;;;11.40;99.90;;;;;;5017530;28;20049;-67
2022/02/20 08:56:08;;;;;;;34.25;10.07;;;11.40;99.90;;;;;;5011327;28;20099;-68
2022/02/20 08:58:38;;;;;;;33.53;8.10;;;11.40;99.90;;;;;;5016572;28;20038;-67
2022/02/20 09:01:08;;;;;;;35.05;8.32;;;11.40;99.90;;;;;;5022415;28;20492;-67
2022/02/20 09:03:35;;;;;;;32.65;9.05;;;11.40;99.90;;;;;;5027015;28;20116;-66
2022/02/20 09:06:02;;;;;;;31.98;8.57;;;11.40;99.90;;;;;;5021991;28;20042;-66
2022/02/20 09:08:30;;;;;;;32.05;9.07;;;11.40;99.90;;;;;;5026315;28;20095;-66
2022/02/20 09:10:57;;;;;;;34.40;10.13;;;11.40;99.90;;;;;;5027431;28;20119;-67
2022/02/20 09:13:24;;;;;;;27.73;8.43;;;11.40;99.90;;;;;;5018683;28;20050;-70
2022/02/20 09:15:51;;;;;;;31.83;12.27;;;11.40;99.90;;;;;;5026760;28;20057;-66
2022/02/20 09:18:18;;;;;;;38.88;12.52;;;11.40;99.90;;;;;;4995699;28;20057;-68
2022/02/20 09:20:47;;;;;;;28.87;8.23;;;11.50;99.90;;;;;;5038096;28;20426;-65
2022/02/20 09:23:14;;;;;;;36.50;9.38;;;11.50;99.90;;;;;;5023654;28;20050;-66
2022/02/20 09:25:42;;;;;;;35.72;10.18;;;11.50;99.90;;;;;;5020595;28;20500;-65
2022/02/20 09:28:08;;;;;;;31.80;8.40;;;11.50;99.90;;;;;;5024561;28;20058;-65
2022/02/20 09:30:35;;;;;;;32.97;9.77;;;11.50;99.90;;;;;;5021255;28;20045;-65
2022/02/20 09:33:03;;;;;;;61.10;30.05;;;11.60;99.90;;;;;;4993388;28;20054;-71
2022/02/20 09:35:30;;;;;;;36.72;12.35;;;11.60;99.90;;;;;;5000392;28;20056;-67
2022/02/20 09:37:59;;;;;;;32.67;9.27;;;11.60;99.90;;;;;;5011043;28;20054;-63
2022/02/20 09:40:26;;;;;;;32.80;10.20;;;11.70;99.90;;;;;;4994523;28;20062;-69
2022/02/20 09:42:53;;;;;;;31.98;9.02;;;11.80;99.90;;;;;;5012377;28;20090;-65
2022/02/20 09:45:20;;;;;;;34.05;8.95;;;11.90;99.90;;;;;;4997619;28;20489;-65
2022/02/20 09:47:47;;;;;;;35.03;9.77;;;11.90;99.90;;;;;;5014397;28;20092;-65
2022/02/20 09:50:14;;;;;;;29.90;7.90;;;12.00;99.90;;;;;;5011457;28;20049;-66
2022/02/20 09:52:41;;;;;;;36.42;9.55;;;12.00;99.90;;;;;;5012710;28;20156;-66
2022/02/20 09:55:08;;;;;;;37.00;10.20;;;12.10;99.90;;;;;;5012124;28;20046;-67
2022/02/20 09:57:35;;;;;;;36.55;10.45;;;12.10;99.90;;;;;;5019463;28;20046;-66
2022/02/20 10:00:06;;;;;;;65.85;36.55;;;12.10;99.90;;;;;;5024946;28;20057;-72
2022/02/20 10:02:36;;;;;;;47.17;20.50;;;12.10;99.90;;;;;;4991513;28;20069;-66
2022/02/20 10:05:04;;;;;;;43.03;16.63;;;12.10;99.90;;;;;;5043279;28;20056;-72
2022/02/20 10:07:36;;;;;;;39.88;12.55;;;12.10;99.90;;;;;;5024722;28;20054;-68
2022/02/20 10:10:16;;;;;;;34.25;12.73;;;12.10;99.90;;;;;;5022941;28;20046;-66
2022/02/20 10:12:44;;;;;;;30.42;12.65;;;12.10;99.90;;;;;;4992249;28;20058;-67
2022/02/20 10:15:27;;;;;;;27.40;8.05;;;12.20;99.90;;;;;;5031160;28;20428;-70
2022/02/20 10:18:10;;;;;;;28.30;9.48;;;12.20;99.90;;;;;;5024654;28;20050;-66
2022/02/20 10:20:37;;;;;;;28.02;7.57;;;12.20;99.90;;;;;;5016298;28;20066;-67
2022/02/20 10:23:05;;;;;;;24.38;8.07;;;12.20;99.90;;;;;;5020164;28;20433;-66
2022/02/20 10:25:37;;;;;;;29.00;10.32;;;12.30;99.90;;;;;;5018884;28;20141;-68
2022/02/20 10:28:07;;;;;;;24.20;7.65;;;12.30;99.90;;;;;;5016628;28;20077;-67
2022/02/20 10:30:34;;;;;;;23.23;7.15;;;12.30;99.90;;;;;;5019143;28;20046;-74
2022/02/20 10:33:10;;;;;;;21.40;7.40;;;12.30;99.90;;;;;;5032664;28;20052;-66
2022/02/20 10:35:44;;;;;;;27.13;7.82;;;12.30;99.90;;;;;;5033430;28;20049;-66
2022/02/20 10:38:13;;;;;;;24.02;8.88;;;12.30;99.90;;;;;;5032598;28;20073;-66
2022/02/20 10:40:41;;;;;;;23.27;8.68;;;12.30;99.90;;;;;;5014440;28;20485;-66
2022/02/20 10:43:22;;;;;;;23.70;7.07;;;12.40;99.90;;;;;;5027721;28;20068;-70
2022/02/20 10:45:49;;;;;;;29.90;8.70;;;12.40;99.90;;;;;;5000000;28;20050;-67
2022/02/20 10:48:19;;;;;;;23.90;6.78;;;12.50;99.90;;;;;;5026867;28;20053;-68
2022/02/20 10:50:56;;;;;;;21.58;8.35;;;12.50;99.90;;;;;;5002397;28;20052;-67
2022/02/20 10:53:23;;;;;;;34.17;10.15;;;12.50;99.90;;;;;;4983244;28;20049;-68
2022/02/20 10:55:51;;;;;;;22.38;8.82;;;12.50;99.90;;;;;;5014795;28;20057;-70
2022/02/20 10:58:18;;;;;;;28.55;7.35;;;12.60;99.90;;;;;;5016405;28;20053;-65
2022/02/20 11:00:51;;;;;;;25.30;7.70;;;12.60;99.90;;;;;;5034176;28;20049;-75
2022/02/20 11:03:23;;;;;;;25.98;7.60;;;12.60;99.90;;;;;;5019245;28;20100;-65
2022/02/20 11:05:50;;;;;;;22.88;7.68;;;12.60;99.90;;;;;;4994744;28;20058;-65
2022/02/20 11:08:19;;;;;;;26.00;9.80;;;12.70;99.90;;;;;;5015936;28;20049;-67
2022/02/20 11:10:46;;;;;;;23.30;7.32;;;12.80;99.90;;;;;;5014463;28;20065;-66
2022/02/20 11:13:14;;;;;;;51.80;22.05;;;12.90;99.90;;;;;;5045908;28;20058;-67
2022/02/20 11:15:42;;;;;;;123.82;82.80;;;12.90;99.90;;;;;;4998037;28;20268;-70
2022/02/20 11:18:11;;;;;;;38.20;19.92;;;13.00;99.90;;;;;;5024974;28;20613;-65
2022/02/20 11:20:41;;;;;;;;;;;13.00;99.90;;;;;;5020995;28;20048;-65
2022/02/20 11:23:08;;;;;;;24.08;8.65;;;12.90;99.90;;;;;;5030712;28;19922;-65
2022/02/20 11:25:36;;;;;;;29.15;8.90;;;12.90;99.90;;;;;;5016985;28;20578;-65
2022/02/20 11:28:04;;;;;;;33.83;10.23;;;12.90;99.90;;;;;;5015642;28;20485;-69
2022/02/20 11:30:31;;;;;;;24.65;7.40;;;12.80;99.90;;;;;;4995369;28;20062;-65
2022/02/20 11:32:59;;;;;;;29.02;8.93;;;12.70;99.90;;;;;;4998201;28;20061;-66
2022/02/20 11:35:27;;;;;;;35.78;9.43;;;12.70;99.90;;;;;;5028058;28;20045;-65
2022/02/20 11:37:58;;;;;;;33.60;9.35;;;12.70;99.90;;;;;;5016140;28;20054;-65
2022/02/20 11:40:28;;;;;;;23.13;7.82;;;12.70;99.90;;;;;;5014690;28;20046;-65
2022/02/20 11:42:58;;;;;;;26.13;8.43;;;12.70;99.90;;;;;;5003304;28;20486;-65
2022/02/20 11:45:30;;;;;;;27.38;8.07;;;12.80;99.90;;;;;;5017861;28;20049;-68
2022/02/20 11:48:04;;;;;;;33.38;11.25;;;12.80;99.90;;;;;;5012008;28;20064;-65
2022/02/20 11:50:36;;;;;;;27.42;10.23;;;12.80;99.90;;;;;;5015217;28;20116;-63
2022/02/20 11:53:07;;;;;;;28.38;8.35;;;12.80;99.90;;;;;;5015778;28;20050;-62
2022/02/20 11:55:42;;;;;;;29.33;8.15;;;12.80;99.90;;;;;;5017770;28;20056;-63
2022/02/20 11:58:17;;;;;;;29.60;8.50;;;12.80;99.90;;;;;;5026826;28;20054;-63
2022/02/20 12:00:56;;;;;;;29.15;8.57;;;12.80;99.90;;;;;;5021412;28;20058;-63
2022/02/20 12:03:27;;;;;;;27.02;9.20;;;12.90;99.90;;;;;;5013873;28;20057;-63
2022/02/20 12:06:19;;;;;;;29.20;8.00;;;13.00;99.90;;;;;;5028006;28;20055;-63
2022/02/20 12:08:48;;;;;;;21.58;7.78;;;13.00;99.90;;;;;;5023355;28;20056;-63
2022/02/20 12:11:25;;;;;;;21.48;7.50;;;13.00;99.90;;;;;;5012281;28;20081;-62
2022/02/20 12:13:53;;;;;;;29.15;9.20;;;12.90;99.90;;;;;;5044955;28;20053;-63
2022/02/20 12:16:50;;;;;;;33.30;9.10;;;12.90;99.90;;;;;;5045681;28;20053;-62
2022/02/20 12:19:17;;;;;;;27.08;8.63;;;12.90;99.90;;;;;;5027159;28;20049;-62
2022/02/20 12:22:02;;;;;;;31.95;7.95;;;12.90;99.90;;;;;;5021675;28;20076;-63
2022/02/20 12:24:51;;;;;;;31.23;8.10;;;12.80;99.90;;;;;;5015747;28;20052;-62
2022/02/20 12:27:26;;;;;;;25.90;8.27;;;12.70;99.90;;;;;;5013708;28;20053;-62
2022/02/20 12:29:57;;;;;;;35.78;9.35;;;12.70;99.90;;;;;;5026494;28;20485;-62
2022/02/20 12:32:26;;;;;;;26.83;7.50;;;12.70;99.90;;;;;;5027669;28;20502;-63
2022/02/20 12:35:09;;;;;;;35.00;8.40;;;12.70;99.90;;;;;;5023719;28;20509;-63
2022/02/20 12:37:46;;;;;;;24.10;7.43;;;12.70;99.90;;;;;;5024596;28;20056;-63
2022/02/20 12:40:30;;;;;;;86.65;50.65;;;12.70;99.90;;;;;;5014319;28;20049;-66
2022/02/20 12:43:10;;;;;;;34.08;12.63;;;12.70;99.90;;;;;;5019330;28;20053;-68
2022/02/20 12:45:44;;;;;;;32.75;10.90;;;12.80;99.90;;;;;;5008387;28;20045;-65